createdAt,value
2018-04-15T00:00:36.129Z,5.23
2018-04-15T00:01:46.130Z,5.28
2018-04-15T00:02:55.858Z,5.36
2018-04-15T00:04:05.593Z,5.4
2018-04-15T00:05:15.340Z,5.4
2018-04-15T00:06:25.471Z,5.37
2018-04-15T00:07:35.545Z,5.36
2018-04-15T00:08:45.285Z,5.26
2018-04-15T00:09:55.287Z,5.25
2018-04-15T00:11:04.494Z,5.08
2018-04-15T00:12:14.503Z,5
2018-04-15T00:13:23.965Z,5
2018-04-15T00:14:33.975Z,4.98
2018-04-15T00:15:43.976Z,5.04
2018-04-15T00:16:53.982Z,4.98
2018-04-15T00:18:03.721Z,5.05
2018-04-15T00:19:13.467Z,5.01
2018-04-15T00:20:23.467Z,4.95
2018-04-15T00:21:33.199Z,4.9
2018-04-15T00:22:42.681Z,4.9
2018-04-15T00:23:52.418Z,4.92
2018-04-15T00:25:02.156Z,4.98
2018-04-15T00:26:12.167Z,5.02
2018-04-15T00:27:21.902Z,5.07
2018-04-15T00:28:31.374Z,5.01
2018-04-15T00:29:41.105Z,5.25
2018-04-15T00:30:51.113Z,5.36
2018-04-15T00:32:00.858Z,5.44
2018-04-15T00:33:10.325Z,5.55
2018-04-15T00:34:20.061Z,5.73
2018-04-15T00:35:29.803Z,5.8
2018-04-15T00:36:39.804Z,5.94
2018-04-15T00:37:49.553Z,5.95
2018-04-15T00:38:59.282Z,6.1
2018-04-15T00:40:08.746Z,6.12
2018-04-15T00:41:18.478Z,6.2
2018-04-15T00:42:28.485Z,6.26
2018-04-15T00:43:38.221Z,6.38
2018-04-15T00:44:48.219Z,6.38
2018-04-15T00:45:57.692Z,6.34
2018-04-15T00:47:07.693Z,6.38
2018-04-15T00:48:17.697Z,6.43
2018-04-15T00:49:27.729Z,6.46
2018-04-15T00:50:37.724Z,6.5
2018-04-15T00:51:47.458Z,6.56
2018-04-15T00:52:57.456Z,6.56
2018-04-15T00:54:07.454Z,6.6
2018-04-15T00:55:16.939Z,6.71
2018-04-15T00:56:26.939Z,6.6
2018-04-15T00:57:36.407Z,6.7
2018-04-15T00:58:46.142Z,6.7
2018-04-15T00:59:56.144Z,6.7
2018-04-15T01:01:05.913Z,6.71
2018-04-15T01:02:15.917Z,6.7
2018-04-15T01:03:25.918Z,6.71
2018-04-15T01:04:35.654Z,6.7
2018-04-15T01:05:45.392Z,6.74
2018-04-15T01:06:55.160Z,6.74
2018-04-15T01:08:04.628Z,6.74
2018-04-15T01:09:14.372Z,6.74
2018-04-15T01:10:24.367Z,6.77
2018-04-15T01:11:34.106Z,6.74
2018-04-15T01:12:43.850Z,6.68
2018-04-15T01:13:53.595Z,6.75
2018-04-15T01:15:03.065Z,6.77
2018-04-15T01:16:12.544Z,6.77
2018-04-15T01:17:22.280Z,6.68
2018-04-15T01:18:31.748Z,6.72
2018-04-15T01:19:41.763Z,6.57
2018-04-15T01:20:51.760Z,6.7
2018-04-15T01:22:01.771Z,6.54
2018-04-15T01:23:11.233Z,6.49
2018-04-15T01:24:21.231Z,6.47
2018-04-15T01:25:31.242Z,6.47
2018-04-15T01:26:40.974Z,6.32
2018-04-15T01:27:50.453Z,6.32
2018-04-15T01:29:00.455Z,6.12
2018-04-15T01:30:10.191Z,6.29
2018-04-15T01:31:19.926Z,6.12
2018-04-15T01:32:29.663Z,6.07
2018-04-15T01:33:39.398Z,5.95
2018-04-15T01:34:49.131Z,5.91
2018-04-15T01:35:59.130Z,5.88
2018-04-15T01:37:08.063Z,5.91
2018-04-15T01:38:18.064Z,5.94
2018-04-15T01:39:27.803Z,5.94
2018-04-15T01:40:37.797Z,5.83
2018-04-15T01:41:47.796Z,5.84
2018-04-15T01:42:57.795Z,5.81
2018-04-15T01:44:07.806Z,5.84
2018-04-15T01:45:17.806Z,5.91
2018-04-15T01:46:27.844Z,5.9
2018-04-15T01:47:37.581Z,5.97
2018-04-15T01:48:47.042Z,5.87
2018-04-15T01:49:57.049Z,5.9
2018-04-15T01:51:06.515Z,5.83
2018-04-15T01:52:16.520Z,5.92
2018-04-15T01:53:26.519Z,5.84
2018-04-15T01:54:35.983Z,5.87
2018-04-15T01:55:45.719Z,5.92
2018-04-15T01:56:55.462Z,5.84
2018-04-15T01:58:05.194Z,5.94
2018-04-15T01:59:15.199Z,5.9
2018-04-15T02:00:25.210Z,5.9
2018-04-15T02:01:35.214Z,5.76
2018-04-15T02:02:44.967Z,5.74
2018-04-15T02:03:55.011Z,5.67
2018-04-15T02:05:04.742Z,5.67
2018-04-15T02:06:14.481Z,5.69
2018-04-15T02:07:24.485Z,5.67
2018-04-15T02:08:34.223Z,5.61
2018-04-15T02:09:44.057Z,5.49
2018-04-15T02:10:53.792Z,5.41
2018-04-15T02:12:03.795Z,5.23
2018-04-15T02:13:13.529Z,5.22
2018-04-15T02:14:23.262Z,5.1
2018-04-15T02:15:32.465Z,5.1
2018-04-15T02:16:42.478Z,5.04
2018-04-15T02:17:52.496Z,5.05
2018-04-15T02:19:02.226Z,4.95
2018-04-15T02:20:11.426Z,4.92
2018-04-15T02:21:21.430Z,4.78
2018-04-15T02:22:31.437Z,4.79
2018-04-15T02:23:41.436Z,4.71
2018-04-15T02:24:51.165Z,4.61
2018-04-15T02:26:00.639Z,4.6
2018-04-15T02:27:10.158Z,4.66
2018-04-15T02:28:20.164Z,4.67
2018-04-15T02:29:29.634Z,4.63
2018-04-15T02:30:39.639Z,4.57
2018-04-15T02:31:49.110Z,4.6
2018-04-15T02:32:58.949Z,4.49
2018-04-15T02:34:08.692Z,4.57
2018-04-15T02:35:18.697Z,4.57
2018-04-15T02:36:28.166Z,4.61
2018-04-15T02:37:38.172Z,4.66
2018-04-15T02:38:47.916Z,4.64
2018-04-15T02:39:57.656Z,4.78
2018-04-15T02:41:07.405Z,4.82
2018-04-15T02:42:17.143Z,5.04
2018-04-15T02:43:26.881Z,5
2018-04-15T02:44:36.627Z,5.13
2018-04-15T02:45:46.641Z,5.15
2018-04-15T02:46:56.431Z,5.12
2018-04-15T02:48:05.926Z,5.01
2018-04-15T02:49:15.394Z,5.02
2018-04-15T02:50:25.414Z,4.92
2018-04-15T02:51:35.417Z,4.76
2018-04-15T02:52:45.428Z,4.64
2018-04-15T02:53:55.434Z,4.53
2018-04-15T02:55:05.438Z,4.58
2018-04-15T02:56:15.176Z,4.64
2018-04-15T02:57:25.181Z,4.48
2018-04-15T02:58:34.927Z,4.6
2018-04-15T02:59:44.941Z,4.58
2018-04-15T03:03:27.858Z,4.3
2018-04-15T03:04:37.888Z,4.25
2018-04-15T03:05:47.630Z,4.27
2018-04-15T03:06:57.637Z,4.21
2018-04-15T03:08:07.379Z,4.13
2018-04-15T03:09:17.386Z,4.07
2018-04-15T03:10:27.122Z,4.03
2018-04-15T03:11:37.131Z,4.04
2018-04-15T03:12:46.869Z,4.02
2018-04-15T03:13:56.605Z,3.94
2018-04-15T03:15:06.471Z,4.03
2018-04-15T03:16:16.206Z,4.02
2018-04-15T03:17:26.205Z,4.02
2018-04-15T03:18:35.669Z,4
2018-04-15T03:19:45.673Z,3.99
2018-04-15T03:20:55.667Z,3.99
2018-04-15T03:22:05.445Z,4
2018-04-15T03:23:15.446Z,3.89
2018-04-15T03:24:25.446Z,3.89
2018-04-15T03:25:35.440Z,3.96
2018-04-15T03:26:45.442Z,3.77
2018-04-15T03:27:55.173Z,3.76
2018-04-15T03:29:04.903Z,3.81
2018-04-15T03:30:14.649Z,3.77
2018-04-15T03:31:24.651Z,3.74
2018-04-15T03:32:34.393Z,3.64
2018-04-15T03:33:44.128Z,3.7
2018-04-15T03:34:54.133Z,3.61
2018-04-15T03:36:04.135Z,3.64
2018-04-15T03:37:13.607Z,3.64
2018-04-15T03:38:23.605Z,3.64
2018-04-15T03:39:33.348Z,3.66
2018-04-15T03:40:43.352Z,3.67
2018-04-15T03:41:53.356Z,3.55
2018-04-15T03:43:03.090Z,3.55
2018-04-15T03:44:12.561Z,3.58
2018-04-15T03:45:22.291Z,3.59
2018-04-15T03:46:31.761Z,3.61
2018-04-15T03:47:41.758Z,3.55
2018-04-15T03:48:51.829Z,3.53
2018-04-15T03:50:01.661Z,3.49
2018-04-15T03:51:11.394Z,3.46
2018-04-15T03:52:21.126Z,3.58
2018-04-15T03:53:31.131Z,3.63
2018-04-15T03:54:41.131Z,3.74
2018-04-15T03:55:51.131Z,3.78
2018-04-15T03:57:01.140Z,3.86
2018-04-15T03:58:10.338Z,3.96
2018-04-15T03:59:20.342Z,4.1
2018-04-15T04:00:30.387Z,4.16
2018-04-15T04:01:39.589Z,4.31
2018-04-15T04:02:49.327Z,4.32
2018-04-15T04:03:59.061Z,4.36
2018-04-15T04:05:08.798Z,4.4
2018-04-15T04:06:18.268Z,4.38
2018-04-15T04:07:28.270Z,4.53
2018-04-15T04:08:38.014Z,4.49
2018-04-15T04:09:47.751Z,4.48
2018-04-15T04:10:57.484Z,4.46
2018-04-15T04:12:06.962Z,4.46
2018-04-15T04:13:16.702Z,4.52
2018-04-15T04:14:26.429Z,4.52
2018-04-15T04:15:35.904Z,4.57
2018-04-15T04:16:45.900Z,4.45
2018-04-15T04:17:55.900Z,4.48
2018-04-15T04:19:05.648Z,4.53
2018-04-15T04:20:15.377Z,4.56
2018-04-15T04:21:25.420Z,4.56
2018-04-15T04:22:35.159Z,4.57
2018-04-15T04:23:45.158Z,4.43
2018-04-15T04:24:55.165Z,4.48
2018-04-15T04:26:04.636Z,4.5
2018-04-15T04:27:14.374Z,4.52
2018-04-15T04:28:24.138Z,4.53
2018-04-15T04:29:33.874Z,4.5
2018-04-15T04:30:43.598Z,4.46
2018-04-15T04:31:53.623Z,4.43
2018-04-15T04:33:02.828Z,4.58
2018-04-15T04:34:12.559Z,4.42
2018-04-15T04:35:22.554Z,4.38
2018-04-15T04:36:32.123Z,4.34
2018-04-15T04:37:41.856Z,4.4
2018-04-15T04:38:51.855Z,4.34
2018-04-15T04:40:01.593Z,4.3
2018-04-15T04:41:11.337Z,4.3
2018-04-15T04:42:21.345Z,4.4
2018-04-15T04:43:31.336Z,4.34
2018-04-15T04:44:41.349Z,4.36
2018-04-15T04:45:51.091Z,4.28
2018-04-15T04:47:01.100Z,4.38
2018-04-15T04:48:10.834Z,4.25
2018-04-15T04:49:20.594Z,4.31
2018-04-15T04:50:30.606Z,4.28
2018-04-15T04:51:40.602Z,4.3
2018-04-15T04:52:50.336Z,4.27
2018-04-15T04:54:00.396Z,4.2
2018-04-15T04:55:09.868Z,4.22
2018-04-15T04:56:19.870Z,4.22
2018-04-15T04:57:29.885Z,4.25
2018-04-15T04:58:39.349Z,4.21
2018-04-15T04:59:49.083Z,4.14
2018-04-15T05:00:58.819Z,4.09
2018-04-15T05:02:08.295Z,4.13
2018-04-15T05:03:18.291Z,4.12
2018-04-15T05:04:27.756Z,4.06
2018-04-15T05:05:37.754Z,4.16
2018-04-15T05:06:47.753Z,4.09
2018-04-15T05:07:57.485Z,4.1
2018-04-15T05:09:06.682Z,4.1
2018-04-15T05:10:16.680Z,4.02
2018-04-15T05:11:26.426Z,3.94
2018-04-15T05:12:35.897Z,3.95
2018-04-15T05:13:45.906Z,4
2018-04-15T05:14:55.104Z,3.96
2018-04-15T05:16:05.108Z,3.95
2018-04-15T05:17:15.056Z,3.89
2018-04-15T05:18:24.529Z,3.89
2018-04-15T05:19:34.528Z,3.89
2018-04-15T05:20:44.263Z,4
2018-04-15T05:21:54.268Z,3.96
2018-04-15T05:23:04.288Z,4.02
2018-04-15T05:24:14.289Z,4.03
2018-04-15T05:25:24.072Z,4.04
2018-04-15T05:26:34.075Z,4.07
2018-04-15T05:27:43.556Z,4.07
2018-04-15T05:28:53.555Z,4.07
2018-04-15T05:30:03.556Z,4.07
2018-04-15T05:31:13.023Z,4.07
2018-04-15T05:32:22.595Z,4.04
2018-04-15T05:33:32.594Z,4.12
2018-04-15T05:34:42.374Z,4.13
2018-04-15T05:35:52.391Z,4.12
2018-04-15T05:37:01.593Z,4.12
2018-04-15T05:38:11.593Z,4.14
2018-04-15T05:39:21.596Z,4.14
2018-04-15T05:40:31.066Z,4.14
2018-04-15T05:41:41.061Z,4.21
2018-04-15T05:42:51.069Z,4.22
2018-04-15T05:44:00.535Z,4.18
2018-04-15T05:45:10.272Z,4.27
2018-04-15T05:46:20.279Z,4.32
2018-04-15T05:47:30.274Z,4.3
2018-04-15T05:48:39.761Z,4.38
2018-04-15T05:49:49.238Z,4.32
2018-04-15T05:50:59.234Z,4.42
2018-04-15T05:52:08.963Z,4.42
2018-04-15T05:53:18.693Z,4.56
2018-04-15T05:54:28.693Z,4.43
2018-04-15T05:55:38.695Z,4.52
2018-04-15T05:56:48.436Z,4.49
2018-04-15T05:57:58.171Z,4.49
2018-04-15T05:59:07.638Z,4.5
2018-04-15T06:00:17.382Z,4.64
2018-04-15T06:01:27.394Z,4.64
2018-04-15T06:02:37.133Z,4.67
2018-04-15T06:03:46.867Z,4.79
2018-04-15T06:04:56.600Z,4.7
2018-04-15T06:06:06.068Z,4.82
2018-04-15T06:07:15.530Z,4.84
2018-04-15T06:08:25.266Z,4.86
2018-04-15T06:09:34.997Z,4.82
2018-04-15T06:10:44.731Z,4.92
2018-04-15T06:11:54.467Z,4.98
2018-04-15T06:13:03.932Z,5
2018-04-15T06:14:13.935Z,5
2018-04-15T06:15:23.399Z,5.02
2018-04-15T06:16:33.397Z,5.05
2018-04-15T06:17:42.875Z,5.02
2018-04-15T06:18:52.348Z,5.02
2018-04-15T06:20:02.353Z,5.15
2018-04-15T06:21:12.088Z,5.05
2018-04-15T06:22:22.103Z,5.02
2018-04-15T06:23:31.844Z,5.18
2018-04-15T06:24:42.072Z,5.18
2018-04-15T06:25:51.808Z,5.15
2018-04-15T06:27:01.815Z,5.15
2018-04-15T06:28:11.832Z,5.18
2018-04-15T06:29:21.302Z,5.23
2018-04-15T06:30:31.313Z,5.18
2018-04-15T06:31:41.059Z,5.2
2018-04-15T06:32:51.055Z,5.28
2018-04-15T06:34:00.521Z,5.28
2018-04-15T06:35:10.267Z,5.34
2018-04-15T06:36:20.000Z,5.33
2018-04-15T06:37:29.202Z,5.44
2018-04-15T06:38:38.997Z,5.46
2018-04-15T06:39:48.736Z,5.49
2018-04-15T06:40:58.206Z,5.58
2018-04-15T06:42:08.216Z,5.69
2018-04-15T06:43:17.958Z,5.72
2018-04-15T06:44:27.701Z,5.79
2018-04-15T06:45:37.708Z,5.72
2018-04-15T06:46:47.731Z,5.79
2018-04-15T06:47:57.785Z,5.91
2018-04-15T06:49:07.794Z,5.98
2018-04-15T06:50:17.951Z,6.06
2018-04-15T06:51:27.418Z,6.05
2018-04-15T06:52:37.147Z,6.13
2018-04-15T06:53:47.147Z,6.16
2018-04-15T06:54:56.885Z,6.2
2018-04-15T06:56:06.912Z,6.19
2018-04-15T06:57:16.688Z,6.2
2018-04-15T06:58:26.470Z,6.36
2018-04-15T06:59:35.936Z,6.32
2018-04-15T07:00:45.949Z,6.34
2018-04-15T07:01:55.785Z,6.36
2018-04-15T07:03:05.514Z,6.41
2018-04-15T07:04:15.255Z,6.38
2018-04-15T07:05:25.258Z,6.52
2018-04-15T07:06:35.162Z,6.46
2018-04-15T07:07:44.901Z,6.5
2018-04-15T07:08:54.107Z,6.47
2018-04-15T07:10:03.855Z,6.47
2018-04-15T07:11:13.868Z,6.5
2018-04-15T07:12:23.869Z,6.36
2018-04-15T07:13:33.870Z,6.32
2018-04-15T07:14:43.615Z,6.38
2018-04-15T07:15:53.348Z,6.41
2018-04-15T07:17:03.078Z,6.44
2018-04-15T07:18:12.816Z,6.49
2018-04-15T07:19:22.821Z,6.52
2018-04-15T07:20:32.586Z,6.57
2018-04-15T07:21:42.629Z,6.59
2018-04-15T07:22:52.808Z,6.62
2018-04-15T07:24:02.813Z,6.64
2018-04-15T07:25:12.820Z,6.64
2018-04-15T07:26:22.554Z,6.62
2018-04-15T07:27:32.567Z,6.67
2018-04-15T07:28:42.575Z,6.56
2018-04-15T07:29:52.043Z,6.75
2018-04-15T07:31:01.510Z,6.7
2018-04-15T07:32:11.527Z,6.83
2018-04-15T07:33:21.531Z,6.72
2018-04-15T07:34:30.997Z,6.8
2018-04-15T07:35:40.726Z,6.9
2018-04-15T07:36:50.465Z,6.93
2018-04-15T07:38:00.470Z,7.01
2018-04-15T07:39:10.478Z,7.04
2018-04-15T07:40:20.485Z,7.07
2018-04-15T07:41:30.232Z,7.01
2018-04-15T07:42:40.240Z,7.05
2018-04-15T07:43:49.987Z,7.04
2018-04-15T07:44:59.984Z,6.95
2018-04-15T07:46:09.991Z,6.83
2018-04-15T07:47:19.192Z,6.78
2018-04-15T07:48:29.199Z,6.77
2018-04-15T07:49:39.223Z,6.77
2018-04-15T07:50:48.964Z,6.82
2018-04-15T07:51:58.693Z,6.72
2018-04-15T07:53:08.720Z,6.7
2018-04-15T07:54:18.757Z,6.7
2018-04-15T07:55:28.497Z,6.67
2018-04-15T07:56:38.233Z,6.62
2018-04-15T07:57:48.237Z,6.6
2018-04-15T07:58:57.980Z,6.6
2018-04-15T08:00:07.729Z,6.67
2018-04-15T08:01:17.739Z,6.64
2018-04-15T08:02:27.607Z,6.7
2018-04-15T08:03:37.628Z,6.74
2018-04-15T08:04:47.359Z,6.75
2018-04-15T08:05:57.098Z,6.83
2018-04-15T08:07:06.569Z,6.8
2018-04-15T08:08:16.055Z,6.85
2018-04-15T08:09:26.059Z,6.9
2018-04-15T08:10:35.801Z,6.96
2018-04-15T08:11:45.274Z,7.05
2018-04-15T08:12:55.281Z,7.07
2018-04-15T08:14:05.304Z,7.04
2018-04-15T08:15:15.043Z,7.18
2018-04-15T08:16:25.065Z,7.25
2018-04-15T08:17:34.803Z,7.14
2018-04-15T08:18:44.806Z,7.29
2018-04-15T08:19:54.279Z,7.26
2018-04-15T08:21:04.019Z,7.36
2018-04-15T08:22:14.036Z,7.39
2018-04-15T08:23:24.096Z,7.43
2018-04-15T08:24:34.100Z,7.59
2018-04-15T08:25:44.105Z,7.59
2018-04-15T08:26:54.112Z,7.59
2018-04-15T08:28:03.593Z,7.59
2018-04-15T08:29:13.603Z,7.43
2018-04-15T08:30:23.601Z,7.5
2018-04-15T08:31:33.358Z,7.23
2018-04-15T08:32:43.097Z,7.26
2018-04-15T08:33:53.098Z,7.32
2018-04-15T08:35:03.101Z,7.13
2018-04-15T08:36:12.573Z,7.14
2018-04-15T08:37:22.044Z,7.11
2018-04-15T08:38:31.528Z,7.13
2018-04-15T08:39:41.000Z,7.14
2018-04-15T08:40:51.008Z,7.14
2018-04-15T08:42:01.019Z,7.28
2018-04-15T08:43:10.491Z,7.15
2018-04-15T08:44:20.350Z,7.13
2018-04-15T08:45:29.823Z,7.18
2018-04-15T08:46:39.291Z,7.15
2018-04-15T08:47:49.038Z,7.19
2018-04-15T08:48:58.506Z,7.14
2018-04-15T08:50:08.514Z,7.29
2018-04-15T08:51:18.524Z,7.25
2018-04-15T08:52:28.261Z,7.26
2018-04-15T08:53:37.997Z,7.22
2018-04-15T08:54:48.021Z,7.36
2018-04-15T08:55:58.035Z,7.41
2018-04-15T08:57:07.771Z,7.46
2018-04-15T08:58:17.245Z,7.62
2018-04-15T08:59:26.712Z,7.64
2018-04-15T09:00:36.232Z,7.53
2018-04-15T09:01:46.062Z,7.59
2018-04-15T09:02:55.796Z,7.62
2018-04-15T09:04:05.536Z,7.72
2018-04-15T09:05:15.543Z,7.72
2018-04-15T09:06:25.539Z,7.75
2018-04-15T09:07:35.541Z,7.91
2018-04-15T09:08:45.276Z,7.87
2018-04-15T09:09:54.483Z,7.88
2018-04-15T09:11:04.237Z,7.93
2018-04-15T09:12:14.245Z,8.02
2018-04-15T09:13:24.256Z,8.2
2018-04-15T09:14:34.261Z,8.26
2018-04-15T09:15:43.027Z,8.38
2018-04-15T09:16:52.503Z,8.53
2018-04-15T09:18:02.513Z,8.57
2018-04-15T09:19:12.547Z,8.72
2018-04-15T09:20:22.554Z,8.77
2018-04-15T09:21:32.026Z,8.81
2018-04-15T09:22:41.499Z,8.77
2018-04-15T09:23:51.557Z,8.9
2018-04-15T09:25:01.030Z,9.02
2018-04-15T09:26:10.501Z,9
2018-04-15T09:27:20.511Z,9.09
2018-04-15T09:28:30.511Z,9.09
2018-04-15T09:29:40.613Z,9.15
2018-04-15T09:30:50.620Z,9.26
2018-04-15T09:32:00.358Z,9.34
2018-04-15T09:33:10.368Z,9.44
2018-04-15T09:34:20.367Z,9.47
2018-04-15T09:35:30.117Z,9.47
2018-04-15T09:36:40.186Z,9.45
2018-04-15T09:37:50.185Z,9.45
2018-04-15T09:39:00.186Z,9.37
2018-04-15T09:40:09.935Z,9.36
2018-04-15T09:41:19.141Z,9.37
2018-04-15T09:42:28.620Z,9.22
2018-04-15T09:43:38.097Z,9.26
2018-04-15T09:44:48.129Z,9.37
2018-04-15T09:45:57.873Z,9.36
2018-04-15T09:47:07.342Z,9.26
2018-04-15T09:48:16.813Z,9.31
2018-04-15T09:49:26.550Z,9.27
2018-04-15T09:50:36.559Z,9.3
2018-04-15T09:51:46.301Z,9.27
2018-04-15T09:52:56.313Z,9.26
2018-04-15T09:54:06.110Z,9.3
2018-04-15T09:55:15.861Z,9.36
2018-04-15T09:56:25.607Z,9.39
2018-04-15T09:57:35.617Z,9.39
2018-04-15T09:58:45.353Z,9.44
2018-04-15T09:59:55.099Z,9.45
2018-04-15T10:01:04.565Z,9.42
2018-04-15T10:02:14.362Z,9.45
2018-04-15T10:03:24.381Z,9.47
2018-04-15T10:04:33.856Z,9.49
2018-04-15T10:05:43.910Z,9.58
2018-04-15T10:06:53.935Z,9.52
2018-04-15T10:08:03.691Z,9.66
2018-04-15T10:09:13.701Z,9.63
2018-04-15T10:10:23.717Z,9.74
2018-04-15T10:11:33.206Z,9.8
2018-04-15T10:12:42.972Z,9.91
2018-04-15T10:13:52.767Z,10.1
2018-04-15T10:15:02.778Z,10.28
2018-04-15T10:16:12.537Z,10.31
2018-04-15T10:17:22.013Z,10.36
2018-04-15T10:18:31.750Z,10.43
2018-04-15T10:19:41.770Z,10.48
2018-04-15T10:20:51.521Z,10.62
2018-04-15T10:22:01.529Z,10.59
2018-04-15T10:23:11.273Z,10.64
2018-04-15T10:24:20.842Z,10.75
2018-04-15T10:25:30.961Z,10.83
2018-04-15T10:26:40.973Z,10.87
2018-04-15T10:27:50.715Z,11.02
2018-04-15T10:29:00.449Z,11.07
2018-04-15T10:30:09.935Z,11.18
2018-04-15T10:31:19.944Z,11.2
2018-04-15T10:32:29.699Z,11.27
2018-04-15T10:33:39.446Z,11.4
2018-04-15T10:34:49.457Z,11.49
2018-04-15T10:35:59.481Z,11.45
2018-04-15T10:37:08.958Z,11.49
2018-04-15T10:38:18.436Z,11.51
2018-04-15T10:39:28.453Z,11.62
2018-04-15T10:40:37.933Z,11.63
2018-04-15T10:41:47.945Z,11.7
2018-04-15T10:42:57.685Z,11.83
2018-04-15T10:44:06.894Z,11.96
2018-04-15T10:45:16.910Z,12.1
2018-04-15T10:46:26.649Z,12.17
2018-04-15T10:47:36.400Z,12.39
2018-04-15T10:48:46.454Z,12.39
2018-04-15T10:49:56.211Z,12.65
2018-04-15T10:51:06.220Z,12.78
2018-04-15T10:52:15.966Z,12.95
2018-04-15T10:53:25.726Z,13.13
2018-04-15T10:54:35.507Z,13.16
2018-04-15T10:55:45.354Z,13.24
2018-04-15T10:56:55.372Z,13.49
2018-04-15T10:58:05.124Z,13.57
2018-04-15T10:59:14.600Z,13.6
2018-04-15T11:00:24.344Z,13.8
2018-04-15T11:01:33.822Z,13.95
2018-04-15T11:02:43.836Z,14.08
2018-04-15T11:03:53.854Z,14.44
2018-04-15T11:05:03.602Z,14.86
2018-04-15T11:06:12.812Z,15.23
2018-04-15T11:07:22.556Z,15.43
2018-04-15T11:08:32.308Z,15.62
2018-04-15T11:09:41.517Z,15.73
2018-04-15T11:10:51.573Z,15.96
2018-04-15T11:12:01.058Z,16.24
2018-04-15T11:13:10.806Z,16.43
2018-04-15T11:14:20.819Z,16.47
2018-04-15T11:15:30.566Z,16.51
2018-04-15T11:16:39.781Z,16.55
2018-04-15T11:17:49.530Z,16.61
2018-04-15T11:18:59.279Z,16.66
2018-04-15T11:20:08.514Z,16.86
2018-04-15T11:21:17.728Z,16.82
2018-04-15T11:22:27.744Z,16.83
2018-04-15T11:23:37.493Z,16.98
2018-04-15T11:24:47.234Z,17.79
2018-04-15T11:25:56.985Z,18.33
2018-04-15T11:27:06.470Z,18.57
2018-04-15T11:28:16.481Z,18.89
2018-04-15T11:29:26.496Z,19.48
2018-04-15T11:30:35.977Z,20.04
2018-04-15T11:31:45.734Z,20.64
2018-04-15T11:32:55.483Z,20.83
2018-04-15T11:34:05.503Z,21.04
2018-04-15T11:35:15.256Z,20.96
2018-04-15T11:36:25.283Z,20.83
2018-04-15T11:37:35.304Z,20.53
2018-04-15T11:38:45.062Z,20.44
2018-04-15T11:39:54.829Z,20.78
2018-04-15T11:41:04.666Z,20.64
2018-04-15T11:42:14.154Z,20.77
2018-04-15T11:43:24.171Z,21.11
2018-04-15T11:44:34.202Z,21.07
2018-04-15T11:45:43.963Z,20.77
2018-04-15T11:46:53.447Z,20.4
2018-04-15T11:48:03.466Z,20.02
2018-04-15T11:49:12.740Z,19.77
2018-04-15T11:50:22.493Z,19.6
2018-04-15T11:51:31.843Z,19.34
2018-04-15T11:52:42.116Z,19.11
2018-04-15T11:53:51.877Z,19.15
2018-04-15T11:55:01.908Z,19.3
2018-04-15T11:56:11.394Z,19.7
2018-04-15T11:57:21.415Z,19.79
2018-04-15T11:58:31.224Z,20.44
2018-04-15T11:59:41.365Z,20.92
2018-04-15T12:00:51.424Z,21.22
2018-04-15T12:02:01.178Z,21.54
2018-04-15T12:03:10.932Z,21.92
2018-04-15T12:04:21.000Z,22.18
2018-04-15T12:05:30.747Z,22.52
2018-04-15T12:06:40.764Z,22.55
2018-04-15T12:07:50.782Z,22.33
2018-04-15T12:09:00.797Z,22.59
2018-04-15T12:10:10.376Z,22.84
2018-04-15T12:11:20.492Z,22.92
2018-04-15T12:12:30.264Z,22.95
2018-04-15T12:13:40.291Z,23.42
2018-04-15T12:14:50.048Z,24.01
2018-04-15T12:15:59.808Z,24.01
2018-04-15T12:17:09.855Z,24.38
2018-04-15T12:18:19.991Z,24.92
2018-04-15T12:19:29.754Z,25.4
2018-04-15T12:20:39.509Z,25.3
2018-04-15T12:21:49.321Z,25.25
2018-04-15T12:22:59.078Z,25.43
2018-04-15T12:24:08.830Z,25.43
2018-04-15T12:25:18.589Z,25.89
2018-04-15T12:26:28.077Z,26.23
2018-04-15T12:27:38.198Z,26.55
2018-04-15T12:28:47.951Z,26.93
2018-04-15T12:29:57.439Z,27.38
2018-04-15T12:31:07.199Z,27.66
2018-04-15T12:32:17.230Z,27.95
2018-04-15T12:33:27.248Z,28.12
2018-04-15T12:34:37.004Z,28.49
2018-04-15T12:35:46.303Z,28.72
2018-04-15T12:36:56.489Z,28.93
2018-04-15T12:38:06.246Z,29.13
2018-04-15T12:39:16.270Z,29.27
2018-04-15T12:40:26.315Z,29.34
2018-04-15T12:41:36.073Z,29
2018-04-15T12:42:45.835Z,28.92
2018-04-15T12:43:55.593Z,28.94
2018-04-15T12:45:05.085Z,28.74
2018-04-15T12:46:15.105Z,28.37
2018-04-15T12:47:25.180Z,27.91
2018-04-15T12:48:34.945Z,28.13
2018-04-15T12:49:44.973Z,28.55
2018-04-15T12:50:55.002Z,28.89
2018-04-15T12:52:04.489Z,29.18
2018-04-15T12:53:14.513Z,29.31
2018-04-15T12:54:24.542Z,29.34
2018-04-15T12:55:34.037Z,28.84
2018-04-15T12:56:44.061Z,28
2018-04-15T12:57:53.835Z,28
2018-04-15T12:59:03.870Z,28.09
2018-04-15T13:00:13.636Z,28.47
2018-04-15T13:01:23.663Z,28.09
2018-04-15T13:02:33.158Z,27.97
2018-04-15T13:03:43.258Z,28.68
2018-04-15T13:04:53.284Z,29.32
2018-04-15T13:06:03.408Z,29.55
2018-04-15T13:07:13.230Z,29.53
2018-04-15T13:08:22.730Z,29.34
2018-04-15T13:09:32.755Z,29.95
2018-04-15T13:10:42.786Z,30.17
2018-04-15T13:11:52.811Z,29.68
2018-04-15T13:13:02.574Z,29.27
2018-04-15T13:14:12.607Z,28.47
2018-04-15T13:15:22.642Z,27.88
2018-04-15T13:16:32.675Z,27.47
2018-04-15T13:17:42.436Z,27.28
2018-04-15T13:18:52.464Z,27.34
2018-04-15T13:20:01.684Z,27.23
2018-04-15T13:21:11.721Z,27.52
2018-04-15T13:22:21.563Z,27.45
2018-04-15T13:23:31.061Z,28.09
2018-04-15T13:24:40.825Z,28.08
2018-04-15T13:25:50.854Z,27.68
2018-04-15T13:27:00.618Z,27.48
2018-04-15T13:28:10.387Z,27.79
2018-04-15T13:29:19.887Z,28.43
2018-04-15T13:30:29.119Z,28.18
2018-04-15T13:31:38.883Z,28
2018-04-15T13:32:48.927Z,28.5
2018-04-15T13:33:58.956Z,29.15
2018-04-15T13:35:08.718Z,29.86
2018-04-15T13:36:18.488Z,30.55
2018-04-15T13:37:28.518Z,30.95
2018-04-15T13:38:38.292Z,31.11
2018-04-15T13:39:48.321Z,31.29
2018-04-15T13:40:58.349Z,31.47
2018-04-15T13:42:08.116Z,31.72
2018-04-15T13:43:18.146Z,31.73
2018-04-15T13:44:28.172Z,31.92
2018-04-15T13:45:37.934Z,31.93
2018-04-15T13:46:47.423Z,30.96
2018-04-15T13:47:56.934Z,30.02
2018-04-15T13:49:06.434Z,29.06
2018-04-15T13:50:16.195Z,28.71
2018-04-15T13:51:26.234Z,28.23
2018-04-15T13:52:35.737Z,27.97
2018-04-15T13:53:45.499Z,27.5
2018-04-15T13:54:55.268Z,27.11
2018-04-15T13:56:05.030Z,27.08
2018-04-15T13:57:15.062Z,26.82
2018-04-15T13:58:25.092Z,26.59
2018-04-15T13:59:34.850Z,26.76
2018-04-15T14:00:44.343Z,27.37
2018-04-15T14:01:54.104Z,28.18
2018-04-15T14:03:03.598Z,28.3
2018-04-15T14:04:13.360Z,28.45
2018-04-15T14:05:23.384Z,28.67
2018-04-15T14:06:33.200Z,28.74
2018-04-15T14:07:42.957Z,28.89
2018-04-15T14:08:52.719Z,29.24
2018-04-15T14:10:02.772Z,29.57
2018-04-15T14:11:12.271Z,28.83
2018-04-15T14:12:22.298Z,28.53
2018-04-15T14:13:32.049Z,28.28
2018-04-15T14:14:42.076Z,28.31
2018-04-15T14:15:51.838Z,28.37
2018-04-15T14:17:01.329Z,28.47
2018-04-15T14:18:11.360Z,29.3
2018-04-15T14:19:21.137Z,29.84
2018-04-15T14:20:30.644Z,30.54
2018-04-15T14:21:40.408Z,30.73
2018-04-15T14:22:50.434Z,30.74
2018-04-15T14:24:00.232Z,30.61
2018-04-15T14:25:10.306Z,30.21
2018-04-15T14:26:20.458Z,29.76
2018-04-15T14:27:29.950Z,29.49
2018-04-15T14:28:40.018Z,29.3
2018-04-15T14:29:49.775Z,29.12
2018-04-15T14:30:59.542Z,28.62
2018-04-15T14:32:09.034Z,27.83
2018-04-15T14:33:19.065Z,27.5
2018-04-15T14:34:28.560Z,27.28
2018-04-15T14:35:38.338Z,27.16
2018-04-15T14:36:47.848Z,27.75
2018-04-15T14:37:57.607Z,27.95
2018-04-15T14:39:07.109Z,27.67
2018-04-15T14:40:16.603Z,27.66
2018-04-15T14:41:26.401Z,27.64
2018-04-15T14:42:36.172Z,27.37
2018-04-15T14:43:45.945Z,27.9
2018-04-15T14:44:55.437Z,27.82
2018-04-15T14:46:05.512Z,28.04
2018-04-15T14:47:14.998Z,28.38
2018-04-15T14:48:25.026Z,28.4
2018-04-15T14:49:34.794Z,28.12
2018-04-15T14:50:44.556Z,27.81
2018-04-15T14:51:54.651Z,27.29
2018-04-15T14:53:04.418Z,26.56
2018-04-15T14:54:13.907Z,26.1
2018-04-15T14:55:23.682Z,25.99
2018-04-15T14:56:32.910Z,25.91
2018-04-15T14:57:42.673Z,25.06
2018-04-15T14:58:52.173Z,24.34
2018-04-15T15:00:02.200Z,23.59
2018-04-15T15:01:11.695Z,22.91
2018-04-15T15:02:21.468Z,22.71
2018-04-15T15:03:31.500Z,22.73
2018-04-15T15:04:41.569Z,22.93
2018-04-15T15:05:51.600Z,22.99
2018-04-15T15:07:01.143Z,23.18
2018-04-15T15:08:10.591Z,23.37
2018-04-15T15:09:20.350Z,23.44
2018-04-15T15:10:30.401Z,23.59
2018-04-15T15:11:40.425Z,23.62
2018-04-15T15:12:49.917Z,23.79
2018-04-15T15:13:59.456Z,23.94
2018-04-15T15:15:09.214Z,23.99
2018-04-15T15:16:19.068Z,23.99
2018-04-15T15:17:28.830Z,23.76
2018-04-15T15:18:38.860Z,23.99
2018-04-15T15:19:49.068Z,24.18
2018-04-15T15:20:58.540Z,24.37
2018-04-15T15:22:08.570Z,23.99
2018-04-15T15:23:18.614Z,23.81
2018-04-15T15:24:28.111Z,23.37
2018-04-15T15:25:37.891Z,23.2